Arlington, New York
Current Conditions -  °F | °C
As of 11:18 PM on Saturday 20 Dec 2014 (Local Time) from KPOU Reporting Station
Overcast Overcast  
Wind Chill: 25°   Ceiling: 2900
Heat Index: 30°   Visibility: 10mi
Dew Point: 21°   Wind: 5mph
Humidity: 69%   Direction: 10°N
Pressure: 30.28"   Gusts: NA
Location:  41.69°N, 73.89°W
Report Text: KPOU 210418Z AUTO 01004KT 10SM BKN029 OVC035 M01/M06 A3028 RMK AO2 T10111061 TSNO
Loading
Personal Weather Stations






























Interactive Weather Map New forecast layout! Learn more

10-Day Weather Forecast

Advertisements
Track Severe Weather on mobile